Airfield :
LOGIN :

Register | Disclaimer

   EN    FR    IT 

 










Legend :    VFR   Marginal VFR   IFR   Intensive IFR   Very Intensive IFR
Visi :
Ceiling :
>= 8 km
>= 3000ft
5 to 8 km
1000 to 3000 ft
1500m to 5 km
500 to 1000 ft
800 to 1500m
200 to 500 ft
< 800m
< 200 ft
Symbols :   Thunderstorms  Fog  Heavy snow  Heavy precipitations  Wind > 20 kt
SIGMETs :     Misc.  Thunderstorms  Icing  Turbulence  Mountain Waves  Volcanic Ashes







- Airport Elevation : 675 ft
- IATA code : RZE


EPRZ - Rzeszow-Jasionka

CURRENT METAR :
  • 232030Z 32007KT 9999 SCT014TCU SCT024 15/14 Q1012

EXPIRED METARs :
  • 232000Z 34008KT 9999 SCT017TCU SCT042 15/13 Q1012
  • 231930Z 35008KT 9999 SCT020TCU SCT036 15/13 Q1012
  • 231900Z 33006KT 9999 BKN008 FEW016TCU 15/14 Q1012
  • 231830Z 29004KT 260V320 9999 BKN010 FEW015TCU 15/14 Q1011
  • 231800Z 26006KT 9999 BKN009 15/14 Q1011

TAF TAF EPRZ
Valid from the 23 at 18:00 until the 24 at 18:00 UTC


231730Z 2318/2418 30008KT 9999 BKN015
TEMPO 2318/2415 2000 SHRA BR BKN005 BKN009CB
PROB40
TEMPO 2318/2324 TSRA
No reported NOTAMs for that airfield.



MET'MAP, your aeronautical weather chart ! - Copyright ORBIFLY December 2007 - Disclaimer

ORBIFLY MET'MAP TEAM :

Programming & Development : Alexandra Zaïnal
Concept & Development : Baudouin d'Aumeries
Co-Development & Prog : Marc-Olivier Méhu
Technical & hardware support : Manuel Goepfert

Contact : metmap@orbifly.com




SOURCES & CREDITS :

   NOAA